Nearby METAR Reports

 

KKLS - Kelso Longveiw, Washington, USA
Distance from station: ESE 7mi, 11km
Updated: Fri, Jan-18-2019 3:56pm PST
Rain, Mist, Overcast
Rain, Mist, Overcast
 Wind from calm
Wind: Calm
Temperature: 45°F , 7°C
Dew Point: 45°F , 7°C
Humidity: 100%
Barometer: 29.99 inHg , 1015.6 hPa
Summary: Rain, Mist
Clouds: Overcast
Visibility: 4 miles , 6 km
Cloud details: Mostly cloudy 3100 ft
Overcast 4100 ft
2019/01/18 23:56 KKLS 182356Z AUTO 00000KT 4SM RA BR BKN031 OVC041 07/07 A2999 RMK AO2 SLP159 P0010 60025 T00720067 10089 20067 58032
KSPB - Scappoose, Oregon, USA
Distance from station: SSE 29mi, 46km
Updated: Fri, Jan-18-2019 3:53pm PST
Light rain, Mist, Overcast
Light rain, Mist, Overcast
 Wind from varies
Wind: varies 3 mph , 6 km/h
Temperature: 46°F , 8°C
Dew Point: 43°F , 6°C
Humidity: 87%
Barometer: 30.00 inHg , 1015.9 hPa
Summary: Light rain, Mist
Clouds: Overcast
Visibility: 4 miles , 6 km
Cloud details: Partly cloudy 3600 ft
Mostly cloudy 4300 ft
Overcast 6000 ft
2019/01/18 23:53 KSPB 182353Z AUTO VRB03KT 4SM -RA BR SCT036 BKN043 OVC060 08/06 A3000 RMK AO2 SLP157 P0013 60026 T00780061 10089 20078 56033
 
KCLS - Chehalis Central, Washington, USA
Distance from station: N 36mi, 58km
Updated: Fri, Jan-18-2019 3:55pm PST
Light rain, Overcast
Light rain, Overcast
 Wind from SSE
Wind: SSE 5 mph , 7 km/h
Temperature: 46°F , 8°C
Wind Chill: 44°F , 7°C
Dew Point: 46°F , 8°C
Humidity: 100%
Barometer: 29.98 inHg , 1015.2 hPa
Summary: Light rain
Clouds: Overcast
Visibility: 3 miles , 5 km
Cloud details: Few Clouds 1400 ft
Few Clouds 2900 ft
Overcast 3400 ft
2019/01/18 23:55 KCLS 182355Z AUTO 15004KT 3SM -RA FEW014 FEW029 OVC034 08/08 A2998 RMK AO2 P0002
KAST - Astoria, Oregon, USA
Distance from station: W 41mi, 66km
Updated: Fri, Jan-18-2019 3:55pm PST
Light rain, Mist, Overcast
Light rain, Mist, Overcast
 Wind from ESE
Wind: ESE 16 mph , 26 km/h, Gust: 25 mph , 41 km/h
Temperature: 45°F , 7°C
Wind Chill: 38°F , 3°C
Dew Point: 43°F , 6°C
Humidity: 93%
Barometer: 29.88 inHg , 1011.9 hPa
Summary: Light rain, Mist
Clouds: Overcast
Visibility: 2 1/2 miles , 4 km
Cloud details: Mostly cloudy 3400 ft
Overcast 4100 ft
2019/01/18 23:55 KAST 182355Z AUTO 11014G22KT 2 1/2SM -RA BR BKN034 OVC041 07/06 A2988 RMK AO2 SLP119 P0014 60040 T00720061 10089 20072 56042
 
KVUO - Vancouver, Washington, USA
Distance from station: SSE 42mi, 68km
Updated: Fri, Jan-18-2019 3:53pm PST
Light rain, Overcast
Light rain, Overcast
 Wind from SSE
Wind: SSE 7 mph , 11 km/h
Temperature: 45°F , 7°C
Wind Chill: 41°F , 5°C
Dew Point: 41°F , 5°C
Humidity: 87%
Barometer: 29.99 inHg , 1015.6 hPa
Summary: Light rain
Clouds: Overcast
Visibility: 9 miles , 14 km
Cloud details: Partly cloudy 4500 ft
Overcast 5500 ft
2019/01/18 23:53 KVUO 182353Z AUTO 15006KT 9SM -RA SCT045 OVC055 07/05 A2999 RMK AO2 SLP155 P0011 60023 T00670050 10078 20061 58038
KHIO - Hillsboro/Portld, Oregon, USA
Distance from station: S 43mi, 69km
Updated: Fri, Jan-18-2019 3:53pm PST
Light rain, Mist, Overcast
Light rain, Mist, Overcast
 Wind from ESE
Wind: ESE 6 mph , 9 km/h
Temperature: 46°F , 8°C
Wind Chill: 43°F , 6°C
Dew Point: 43°F , 6°C
Humidity: 87%
Barometer: 29.98 inHg , 1015.2 hPa
Summary: Light rain, Mist
Clouds: Overcast
Visibility: 4 miles , 6 km
Cloud details: Few Clouds 1400 ft
Mostly cloudy 3300 ft
Overcast 4000 ft
2019/01/18 23:53 KHIO 182353Z 12005KT 4SM -RA BR FEW014 BKN033 OVC040 08/06 A2998 RMK AO2 SLP154 P0009 60025 T00780061 10083 20072 56037
 
KPDX - Portland, Oregon, USA
Distance from station: SSE 44mi, 70km
Updated: Fri, Jan-18-2019 3:53pm PST
Light rain, Overcast
Light rain, Overcast
 Wind from ESE
Wind: ESE 15 mph , 24 km/h
Temperature: 45°F , 7°C
Wind Chill: 38°F , 3°C
Dew Point: 43°F , 6°C
Humidity: 93%
Barometer: 29.99 inHg , 1015.6 hPa
Summary: Light rain
Clouds: Overcast
Visibility: 9 miles , 14 km
Cloud details: Mostly cloudy 5000 ft
Overcast 6500 ft
2019/01/18 23:53 KPDX 182353Z 12013KT 9SM -RA BKN050 OVC065 07/06 A2999 RMK AO2 SLP155 P0010 60021 T00720056 10083 20067 58039